Time;durP1;ratioP1;P1;durP2;ratioP2;P2;SDS_P1;SDS_P2;PMS_P1;PMS_P2;Temp;Humidity;BMP_temperature;BMP_pressure;BME280_temperature;BME280_humidity;BME280_pressure;Samples;Min_cycle;Max_cycle;Signal;HPM_P1;HPM_P2
2021/06/28 00:01:59;;;;;;;12.10;9.07;;;;;;;-139.48;100.00;61774.03;5054607;28;20079;-67
2021/06/28 00:04:43;;;;;;;12.85;8.70;;;;;;;-139.48;100.00;61774.03;5039164;28;20110;-68
2021/06/28 00:07:27;;;;;;;12.68;9.63;;;;;;;-139.48;100.00;61774.03;5053401;28;20079;-68
2021/06/28 00:10:12;;;;;;;;;;;;;;;-139.48;100.00;61774.03;5054798;28;20079;-68
2021/06/28 00:12:59;;;;;;;12.02;9.95;;;;;;;-139.48;100.00;61774.03;5054048;28;19970;-67
2021/06/28 00:15:43;;;;;;;11.68;9.30;;;;;;;-139.48;100.00;61774.03;5052915;28;20413;-67
2021/06/28 00:18:27;;;;;;;12.10;9.02;;;;;;;-139.48;100.00;61774.03;5053193;28;20051;-67
2021/06/28 00:21:11;;;;;;;13.55;10.88;;;;;;;-139.48;100.00;61774.03;5053965;28;20461;-68
2021/06/28 00:23:55;;;;;;;;;;;;;;;-139.48;100.00;61774.03;5053119;28;20048;-67
2021/06/28 00:26:39;;;;;;;12.17;9.23;;;;;;;-139.48;100.00;61774.03;5053123;28;19920;-67
2021/06/28 00:29:23;;;;;;;15.50;10.75;;;;;;;-139.48;100.00;61774.03;5053254;28;20094;-68
2021/06/28 00:32:07;;;;;;;14.65;11.13;;;;;;;-139.48;100.00;61774.03;5038553;28;20095;-67
2021/06/28 00:34:51;;;;;;;14.23;10.65;;;;;;;-139.48;100.00;61774.03;5053756;28;20082;-67
2021/06/28 00:37:35;;;;;;;12.80;11.23;;;;;;;-139.48;100.00;61774.03;5052898;28;20170;-68
2021/06/28 00:40:20;;;;;;;12.52;11.23;;;;;;;-139.48;100.00;61774.03;5052944;28;20052;-67
2021/06/28 00:43:05;;;;;;;13.25;11.45;;;;;;;-139.48;100.00;61774.03;5038691;28;20103;-67
2021/06/28 00:45:49;;;;;;;20.58;11.32;;;;;;;-139.48;100.00;61774.03;5052389;28;20098;-68
2021/06/28 00:48:32;;;;;;;8.52;7.72;;;;;;;-139.48;100.00;61774.03;5052538;28;20417;-68
2021/06/28 00:51:16;;;;;;;18.73;10.15;;;;;;;-139.48;100.00;61774.03;5053657;28;20052;-67
2021/06/28 00:54:00;;;;;;;14.00;10.38;;;;;;;-139.48;100.00;61774.03;5053437;28;20044;-68
2021/06/28 00:56:44;;;;;;;12.45;11.05;;;;;;;-139.48;100.00;61774.03;5038498;28;20170;-68
2021/06/28 00:59:29;;;;;;;12.25;10.95;;;;;;;-139.48;100.00;61774.03;5052285;28;20413;-65
2021/06/28 01:02:13;;;;;;;12.82;10.63;;;;;;;-139.48;100.00;61774.03;5038709;28;20087;-67
2021/06/28 01:04:56;;;;;;;9.00;8.07;;;;;;;-139.48;100.00;61774.03;5053063;28;20090;-68
2021/06/28 01:07:41;;;;;;;10.98;9.88;;;;;;;-139.48;100.00;61774.03;5038078;28;20175;-68
2021/06/28 01:10:26;;;;;;;11.43;9.82;;;;;;;-139.48;100.00;61774.03;5038308;28;20056;-68
2021/06/28 01:13:10;;;;;;;11.90;8.40;;;;;;;-139.48;100.00;61774.03;5053654;28;20128;-68
2021/06/28 01:15:54;;;;;;;8.27;7.47;;;;;;;-139.48;100.00;61774.03;5052022;28;20091;-68
2021/06/28 01:18:38;;;;;;;8.55;7.65;;;;;;;-139.48;100.00;61774.03;5053302;28;20427;-68
2021/06/28 01:21:23;;;;;;;11.40;10.02;;;;;;;-139.48;100.00;61774.03;5053026;28;20075;-68
2021/06/28 01:24:08;;;;;;;14.05;8.75;;;;;;;-139.48;100.00;61774.03;5051956;28;20222;-68
2021/06/28 01:26:52;;;;;;;8.73;7.93;;;;;;;-139.48;100.00;61774.03;5052239;28;20402;-67
2021/06/28 01:29:36;;;;;;;8.20;7.40;;;;;;;-139.48;100.00;61774.03;5052238;28;20466;-68
2021/06/28 01:32:21;;;;;;;8.18;7.38;;;;;;;-139.48;100.00;61774.03;5037976;28;20048;-68
2021/06/28 01:35:05;;;;;;;8.82;7.30;;;;;;;-139.48;100.00;61774.03;5052324;28;20052;-68
2021/06/28 01:37:49;;;;;;;8.70;7.55;;;;;;;-139.48;100.00;61774.03;5053165;28;20572;-68
2021/06/28 01:40:34;;;;;;;9.38;7.80;;;;;;;-139.48;100.00;61774.03;5052049;28;20058;-68
2021/06/28 01:43:18;;;;;;;8.70;7.80;;;;;;;-139.48;100.00;61774.03;5037914;28;20103;-68
2021/06/28 01:46:02;;;;;;;9.82;8.40;;;;;;;-139.48;100.00;61774.03;5054935;28;20047;-67
2021/06/28 01:48:46;;;;;;;9.85;8.40;;;;;;;-139.48;100.00;61774.03;5056078;28;20071;-68
2021/06/28 01:51:30;;;;;;;;;;;;;;;-139.48;100.00;61774.03;5056230;28;20047;-68
2021/06/28 01:56:49;;;;;;;8.70;7.80;;;;;;;-139.48;100.00;61774.03;5035310;28;20352;-69
2021/06/28 01:59:35;;;;;;;9.40;8.35;;;;;;;-139.48;100.00;61774.03;5022195;28;20060;-69
2021/06/28 02:02:19;;;;;;;12.93;10.00;;;;;;;-139.48;100.00;61774.03;5008160;28;20052;-69
2021/06/28 02:05:05;;;;;;;10.38;9.10;;;;;;;-139.48;100.00;61774.03;5035513;28;20092;-69
2021/06/28 02:07:49;;;;;;;10.55;8.90;;;;;;;-139.48;100.00;61774.03;5008009;28;20087;-69
2021/06/28 02:10:38;;;;;;;10.20;9.20;;;;;;;-139.48;100.00;61774.03;5036510;28;20445;-69
2021/06/28 02:13:24;;;;;;;11.00;9.52;;;;;;;-139.48;100.00;61774.03;5021725;28;20096;-69
2021/06/28 02:16:08;;;;;;;10.65;9.65;;;;;;;-139.48;100.00;61774.03;5021561;28;20048;-69
2021/06/28 02:18:51;;;;;;;9.80;8.85;;;;;;;-139.48;100.00;61774.03;5021513;28;20095;-69
2021/06/28 02:21:35;;;;;;;15.48;9.30;;;;;;;-139.48;100.00;61774.03;5036286;28;20422;-69
2021/06/28 02:24:20;;;;;;;10.95;9.23;;;;;;;-139.48;100.00;61774.03;5021353;28;20402;-69
2021/06/28 02:27:04;;;;;;;10.45;9.20;;;;;;;-139.48;100.00;61774.03;5021276;28;20107;-69
2021/06/28 02:29:48;;;;;;;11.70;9.55;;;;;;;-139.48;100.00;61774.03;5021495;28;20051;-68
2021/06/28 02:32:32;;;;;;;9.88;8.93;;;;;;;-139.48;100.00;61774.03;5036344;28;20512;-69
2021/06/28 02:35:17;;;;;;;10.57;9.40;;;;;;;-139.48;100.00;61774.03;5036430;28;20044;-70
2021/06/28 02:38:01;;;;;;;10.10;9.10;;;;;;;-139.48;100.00;61774.03;5020990;28;20052;-70
2021/06/28 02:40:45;;;;;;;9.30;8.40;;;;;;;-139.48;100.00;61774.03;5021053;28;20057;-70
2021/06/28 02:43:29;;;;;;;;;;;;;;;-139.48;100.00;61774.03;5036500;28;20084;-69
2021/06/28 02:46:14;;;;;;;17.77;10.53;;;;;;;-139.48;100.00;61774.03;5007038;28;19940;-70
2021/06/28 02:48:58;;;;;;;15.32;9.80;;;;;;;-139.48;100.00;61774.03;5020758;28;20052;-70
2021/06/28 02:51:42;;;;;;;12.90;9.45;;;;;;;-139.48;100.00;61774.03;5020777;28;20107;-70
2021/06/28 02:54:27;;;;;;;;;;;;;;;-139.48;100.00;61774.03;5035978;28;20039;-71
2021/06/28 02:57:10;;;;;;;15.23;10.65;;;;;;;-139.48;100.00;61774.03;5020643;28;20431;-69
2021/06/28 02:59:54;;;;;;;13.20;11.32;;;;;;;-139.48;100.00;61774.03;5020957;28;20044;-69
2021/06/28 03:02:38;;;;;;;13.38;9.50;;;;;;;-139.48;100.00;61774.03;5020853;28;20052;-70
2021/06/28 03:05:22;;;;;;;;;;;;;;;-139.48;100.00;61774.03;5021309;28;20069;-70
2021/06/28 03:08:07;;;;;;;11.07;9.40;;;;;;;-139.48;100.00;61774.03;5006803;28;19924;-70
2021/06/28 03:10:50;;;;;;;10.40;8.55;;;;;;;-139.48;100.00;61774.03;5020479;28;20091;-70
2021/06/28 03:13:36;;;;;;;10.27;9.15;;;;;;;-139.48;100.00;61774.03;5021109;28;20456;-70
2021/06/28 03:16:20;;;;;;;10.50;9.40;;;;;;;-139.48;100.00;61774.03;5020752;28;20056;-70
2021/06/28 03:19:04;;;;;;;10.73;9.43;;;;;;;-139.48;100.00;61774.03;5007097;28;20048;-69
2021/06/28 03:21:48;;;;;;;13.32;8.52;;;;;;;-139.48;100.00;61774.03;5035642;28;20045;-69
2021/06/28 03:24:32;;;;;;;9.70;8.20;;;;;;;-139.48;100.00;61774.03;5020362;28;20095;-69
2021/06/28 03:27:16;;;;;;;9.77;8.57;;;;;;;-139.48;100.00;61774.03;5006930;28;20056;-70
2021/06/28 03:30:01;;;;;;;11.07;9.65;;;;;;;-139.48;100.00;61774.03;5020477;28;20517;-69
2021/06/28 03:32:45;;;;;;;9.65;8.57;;;;;;;-139.48;100.00;61774.03;5006204;28;20568;-69
2021/06/28 03:35:30;;;;;;;9.43;8.38;;;;;;;-139.48;100.00;61774.03;5020159;28;20048;-69
2021/06/28 03:38:14;;;;;;;10.00;9.02;;;;;;;-139.48;100.00;61774.03;5006932;28;20084;-69
2021/06/28 03:40:58;;;;;;;10.13;8.77;;;;;;;-139.48;100.00;61774.03;5019956;28;20414;-69
2021/06/28 03:43:42;;;;;;;;;;;;;;;-139.48;100.00;61774.03;5020233;28;20113;-70
2021/06/28 03:46:27;;;;;;;10.90;9.47;;;;;;;-139.48;100.00;61774.03;5005929;28;19924;-70
2021/06/28 03:49:10;;;;;;;9.20;8.32;;;;;;;-139.48;100.00;61774.03;5019931;28;20072;-70
2021/06/28 03:51:54;;;;;;;12.38;10.20;;;;;;;-139.48;100.00;61774.03;5019716;28;20186;-69
2021/06/28 03:54:38;;;;;;;12.63;9.07;;;;;;;-139.48;100.00;61774.03;5019519;28;20119;-70
2021/06/28 03:57:22;;;;;;;10.27;9.27;;;;;;;-139.48;100.00;61774.03;5005991;28;20095;-69
2021/06/28 04:00:15;;;;;;;12.48;8.98;;;;;;;-139.48;100.00;61774.03;5006201;28;20099;-69
2021/06/28 04:03:01;;;;;;;9.25;8.27;;;;;;;-139.48;100.00;61774.03;5005895;28;20438;-69
2021/06/28 04:05:45;;;;;;;10.30;9.15;;;;;;;-139.48;100.00;61774.03;5019790;28;20048;-70
2021/06/28 04:08:29;;;;;;;10.02;9.00;;;;;;;-139.48;100.00;61774.03;5033706;28;20123;-70
2021/06/28 04:11:17;;;;;;;11.15;9.82;;;;;;;-139.48;100.00;61774.03;5020124;28;20048;-69
2021/06/28 04:14:01;;;;;;;10.45;8.77;;;;;;;-139.48;100.00;61774.03;5006040;28;20164;-69
2021/06/28 04:16:46;;;;;;;9.35;8.45;;;;;;;-139.48;100.00;61774.03;5019237;28;20152;-69
2021/06/28 04:19:30;;;;;;;11.85;10.00;;;;;;;-139.48;100.00;61774.03;5034621;28;20052;-69
2021/06/28 04:22:14;;;;;;;9.90;8.95;;;;;;;-139.48;100.00;61774.03;5019689;28;20069;-70
2021/06/28 04:24:58;;;;;;;11.45;10.25;;;;;;;-139.48;100.00;61774.03;5019132;28;20469;-70
2021/06/28 04:27:43;;;;;;;10.55;9.52;;;;;;;-139.48;100.00;61774.03;5019664;28;20051;-70
2021/06/28 04:30:27;;;;;;;16.33;11.23;;;;;;;-139.48;100.00;61774.03;5019352;28;20048;-69
2021/06/28 04:33:12;;;;;;;12.95;11.30;;;;;;;-139.48;100.00;61774.03;5019370;28;20529;-70
2021/06/28 04:35:58;;;;;;;13.73;10.13;;;;;;;-139.48;100.00;61774.03;5019449;28;20040;-70
2021/06/28 04:38:42;;;;;;;9.82;8.70;;;;;;;-139.48;100.00;61774.03;5005088;28;20418;-69
2021/06/28 04:41:26;;;;;;;12.43;9.63;;;;;;;-139.48;100.00;61774.03;5033957;28;20049;-70
2021/06/28 04:44:10;;;;;;;12.15;9.45;;;;;;;-139.48;100.00;61774.03;5034068;28;20072;-69
2021/06/28 04:46:54;;;;;;;14.93;11.15;;;;;;;-139.48;100.00;61774.03;5019028;28;20422;-69
2021/06/28 04:49:38;;;;;;;9.98;8.98;;;;;;;-139.48;100.00;61774.03;5033856;28;20076;-70
2021/06/28 04:52:22;;;;;;;13.93;9.85;;;;;;;-139.48;100.00;61774.03;5033851;28;20124;-69
2021/06/28 04:55:08;;;;;;;9.77;8.77;;;;;;;-139.48;100.00;61774.03;5033531;28;20052;-70
2021/06/28 04:57:55;;;;;;;11.57;9.93;;;;;;;-139.48;100.00;61774.03;5005013;28;20048;-70
2021/06/28 05:00:39;;;;;;;10.93;9.73;;;;;;;-139.48;100.00;61774.03;5018973;28;20056;-69
2021/06/28 05:03:23;;;;;;;13.35;9.82;;;;;;;-139.48;100.00;61774.03;5004797;28;20045;-70
2021/06/28 05:06:06;;;;;;;11.13;9.18;;;;;;;-139.48;100.00;61774.03;5018712;28;20051;-69
2021/06/28 05:08:50;;;;;;;11.98;9.88;;;;;;;-139.48;100.00;61774.03;5018481;28;20156;-70
2021/06/28 05:11:36;;;;;;;12.10;10.10;;;;;;;-139.48;100.00;61774.03;5018331;28;20116;-70
2021/06/28 05:14:20;;;;;;;14.25;10.07;;;;;;;-139.48;100.00;61774.03;5018497;28;20044;-71
2021/06/28 05:17:05;;;;;;;11.88;10.65;;;;;;;-139.48;100.00;61774.03;5018587;28;20146;-69
2021/06/28 05:19:49;;;;;;;12.13;9.00;;;;;;;-139.48;100.00;61774.03;5033462;28;20513;-70
2021/06/28 05:22:32;;;;;;;;;;;;;;;-139.48;100.00;61774.03;5004883;28;20088;-70
2021/06/28 05:25:16;;;;;;;12.35;8.77;;;;;;;-139.48;100.00;61774.03;5018572;28;19966;-69
2021/06/28 05:28:01;;;;;;;11.38;10.25;;;;;;;-139.48;100.00;61774.03;5004797;28;20044;-70
2021/06/28 05:30:45;;;;;;;10.20;7.60;;;;;;;-139.48;100.00;61774.03;5004580;28;20060;-70
2021/06/28 05:33:28;;;;;;;8.63;6.68;;;;;;;-139.48;100.00;61774.03;5019020;28;20048;-69
2021/06/28 05:36:12;;;;;;;;;;;;;;;-139.48;100.00;61774.03;5034068;28;20518;-69
2021/06/28 05:38:56;;;;;;;11.07;6.70;;;;;;;-139.48;100.00;61774.03;5018993;28;19920;-69
2021/06/28 05:41:40;;;;;;;;;;;;;;;-139.48;100.00;61774.03;5019177;28;20095;-70
2021/06/28 05:44:24;;;;;;;10.85;6.32;;;;;;;-139.48;100.00;61774.03;5033854;28;19924;-70
2021/06/28 05:47:09;;;;;;;7.75;6.70;;;;;;;-139.48;100.00;61774.03;5004745;28;20540;-70
2021/06/28 05:49:53;;;;;;;9.13;6.30;;;;;;;-139.48;100.00;61774.03;5004652;28;20051;-70
2021/06/28 05:52:37;;;;;;;7.43;6.25;;;;;;;-139.48;100.00;61774.03;5033360;28;20056;-69
2021/06/28 05:55:20;;;;;;;8.13;6.55;;;;;;;-139.48;100.00;61774.03;5033134;28;20041;-69
2021/06/28 05:58:04;;;;;;;5.78;5.22;;;;;;;-139.48;100.00;61774.03;5033106;28;20144;-69
2021/06/28 06:00:48;;;;;;;9.10;5.38;;;;;;;-139.48;100.00;61774.03;5033344;28;20053;-70
2021/06/28 06:03:33;;;;;;;8.32;5.60;;;;;;;-139.48;100.00;61774.03;5003955;28;20045;-69
2021/06/28 06:06:17;;;;;;;6.22;5.57;;;;;;;-139.48;100.00;61774.03;5004196;28;20513;-69
2021/06/28 06:09:01;;;;;;;6.32;5.40;;;;;;;-139.48;100.00;61774.03;5018176;28;20052;-69
2021/06/28 06:11:45;;;;;;;5.70;5.20;;;;;;;-139.48;100.00;61774.03;5018127;28;20048;-67
2021/06/28 06:14:29;;;;;;;5.60;4.50;;;;;;;-139.48;100.00;61774.03;5017982;28;20460;-70
2021/06/28 06:17:13;;;;;;;7.47;5.20;;;;;;;-139.48;100.00;61774.03;5018174;28;20060;-69
2021/06/28 06:19:59;;;;;;;5.68;4.57;;;;;;;-139.48;100.00;61774.03;5018183;28;20111;-69
2021/06/28 06:22:42;;;;;;;7.88;4.82;;;;;;;-139.48;100.00;61774.03;5004354;28;20052;-69
2021/06/28 06:25:26;;;;;;;7.93;4.65;;;;;;;-139.48;100.00;61774.03;5033161;28;20124;-69
2021/06/28 06:28:11;;;;;;;4.57;4.18;;;;;;;-139.48;100.00;61774.03;5018067;28;20095;-68
2021/06/28 06:30:55;;;;;;;6.82;4.07;;;;;;;-139.48;100.00;61774.03;5018993;28;20048;-67
2021/06/28 06:33:39;;;;;;;;;;;;;;;-139.48;100.00;61774.03;5008320;28;20083;-69
2021/06/28 06:36:23;;;;;;;5.97;4.40;;;;;;;-139.48;100.00;61774.03;5021501;28;19920;-69
2021/06/28 06:39:07;;;;;;;8.10;4.22;;;;;;;-139.48;100.00;61774.03;5007364;28;20293;-69
2021/06/28 06:41:51;;;;;;;4.57;4.05;;;;;;;-139.48;100.00;61774.03;5021360;28;20124;-69
2021/06/28 06:44:35;;;;;;;6.43;4.13;;;;;;;-139.48;100.00;61774.03;5007416;28;20087;-69
2021/06/28 06:47:20;;;;;;;4.90;4.38;;;;;;;-139.48;100.00;61774.03;5021155;28;20099;-69
2021/06/28 06:50:05;;;;;;;5.75;4.25;;;;;;;-139.48;100.00;61774.03;5021003;28;20052;-69
2021/06/28 06:52:49;;;;;;;7.22;3.97;;;;;;;-139.48;100.00;61774.03;5021164;28;20099;-70
2021/06/28 06:55:34;;;;;;;5.00;4.20;;;;;;;-139.48;100.00;61774.03;5020987;28;20064;-70
2021/06/28 06:58:18;;;;;;;5.03;3.67;;;;;;;-139.48;100.00;61774.03;5020963;28;20556;-70
2021/06/28 07:01:04;;;;;;;4.85;3.90;;;;;;;-139.48;100.00;61774.03;5007180;28;20497;-69
2021/06/28 07:03:48;;;;;;;4.60;4.05;;;;;;;-139.48;100.00;61774.03;5006959;28;20091;-69
2021/06/28 07:06:31;;;;;;;;;;;;;;;-139.48;100.00;61774.03;5036132;28;20103;-68
2021/06/28 07:09:15;;;;;;;3.90;3.60;;;;;;;-139.48;100.00;61774.03;5035575;28;19976;-69
2021/06/28 07:11:59;;;;;;;;;;;;;;;-139.48;100.00;61774.03;5021346;28;20411;-69
2021/06/28 07:14:43;;;;;;;4.40;4.00;;;;;;;-139.48;100.00;61774.03;5020660;28;20281;-68
2021/06/28 07:17:27;;;;;;;4.30;3.90;;;;;;;-139.48;100.00;61774.03;5020909;28;20103;-69
2021/06/28 07:20:14;;;;;;;4.53;4.10;;;;;;;-139.48;100.00;61774.03;5020612;28;20098;-70
2021/06/28 07:22:58;;;;;;;4.47;4.07;;;;;;;-139.48;100.00;61774.03;5020435;28;20056;-69
2021/06/28 07:25:42;;;;;;;5.47;3.67;;;;;;;-139.48;100.00;61774.03;5006734;28;20450;-69
2021/06/28 07:28:28;;;;;;;5.60;3.80;;;;;;;-139.48;100.00;61774.03;5020498;28;20052;-69
2021/06/28 07:31:12;;;;;;;4.32;3.92;;;;;;;-139.48;100.00;61774.03;5020452;28;20144;-69
2021/06/28 07:33:56;;;;;;;5.53;4.03;;;;;;;-139.48;100.00;61774.03;5006572;28;20044;-70
2021/06/28 07:36:40;;;;;;;;;;;;;;;-139.48;100.00;61774.03;5020451;28;20076;-69
2021/06/28 07:39:24;;;;;;;4.05;3.75;;;;;;;-139.48;100.00;61774.03;5035017;28;20051;-69
2021/06/28 07:42:08;;;;;;;;;;;;;;;-139.48;100.00;61774.03;5034763;28;20144;-69
2021/06/28 07:44:53;;;;;;;7.30;3.90;;;;;;;-139.48;100.00;61774.03;5006132;28;19967;-69
2021/06/28 07:47:37;;;;;;;5.95;4.03;;;;;;;-139.48;100.00;61774.03;5006415;28;20111;-69
2021/06/28 07:50:21;;;;;;;5.18;4.05;;;;;;;-139.48;100.00;61774.03;5006316;28;20053;-70
2021/06/28 07:53:05;;;;;;;;;;;;;;;-139.48;100.00;61774.03;5020357;28;20469;-69
2021/06/28 07:55:49;;;;;;;5.22;3.70;;;;;;;-139.48;100.00;61774.03;5020911;28;19924;-70
2021/06/28 07:58:32;;;;;;;;;;;;;;;-139.48;100.00;61774.03;5035253;28;20414;-68
2021/06/28 08:01:17;;;;;;;7.40;3.80;;;;;;;-139.48;100.00;61774.03;5019868;28;20266;-69
2021/06/28 08:04:02;;;;;;;5.47;3.50;;;;;;;-139.48;100.00;61774.03;5034626;28;20053;-69
2021/06/28 08:06:46;;;;;;;3.63;3.22;;;;;;;-139.48;100.00;61774.03;5005700;28;20106;-69
2021/06/28 08:09:30;;;;;;;;;;;;;;;-139.48;100.00;61774.03;5006035;28;20048;-68
2021/06/28 08:12:13;;;;;;;4.57;3.35;;;;;;;-139.48;100.00;61774.03;5019816;28;19920;-69
2021/06/28 08:14:57;;;;;;;;;;;;;;;-139.48;100.00;61774.03;5019569;28;20095;-69
2021/06/28 08:17:42;;;;;;;3.08;2.85;;;;;;;-139.48;100.00;61774.03;5005903;28;19920;-69
2021/06/28 08:20:26;;;;;;;3.72;3.28;;;;;;;-139.48;100.00;61774.03;5019303;28;20114;-69
2021/06/28 08:23:10;;;;;;;;;;;;;;;-139.48;100.00;61774.03;5034535;28;20498;-69
2021/06/28 08:25:55;;;;;;;4.15;3.08;;;;;;;-139.48;100.00;61774.03;5019283;28;20472;-69
2021/06/28 08:28:39;;;;;;;;;;;;;;;-139.48;100.00;61774.03;5005751;28;20044;-69
2021/06/28 08:31:23;;;;;;;4.55;3.60;;;;;;;-139.48;100.00;61774.03;5018930;28;19921;-69
2021/06/28 08:34:07;;;;;;;3.28;2.97;;;;;;;-139.48;100.00;61774.03;5005423;28;20057;-69
2021/06/28 08:36:51;;;;;;;4.90;3.50;;;;;;;-139.48;100.00;61774.03;5019042;28;20048;-69
2021/06/28 08:39:35;;;;;;;4.97;3.47;;;;;;;-139.48;100.00;61774.03;5018792;28;20052;-69
2021/06/28 08:42:20;;;;;;;4.00;3.30;;;;;;;-139.48;100.00;61774.03;5004802;28;20044;-69
2021/06/28 08:45:05;;;;;;;3.58;3.10;;;;;;;-139.48;100.00;61774.03;5033510;28;20042;-69
2021/06/28 08:47:49;;;;;;;4.85;3.30;;;;;;;-139.48;100.00;61774.03;5004624;28;20475;-69
2021/06/28 08:50:33;;;;;;;;;;;;;;;-139.48;100.00;61774.03;5019015;28;20051;-67
2021/06/28 08:53:19;;;;;;;3.72;3.35;;;;;;;-139.48;100.00;61774.03;5018443;28;19920;-69
2021/06/28 08:56:07;;;;;;;5.93;3.53;;;;;;;-139.48;100.00;61774.03;5018818;28;20423;-69
2021/06/28 08:58:51;;;;;;;3.67;3.28;;;;;;;-139.48;100.00;61774.03;5019188;28;20097;-69
2021/06/28 09:01:36;;;;;;;3.42;3.08;;;;;;;-139.48;100.00;61774.03;5018687;28;20434;-69
2021/06/28 09:04:21;;;;;;;4.25;2.90;;;;;;;-139.48;100.00;61774.03;5018196;28;20095;-70
2021/06/28 09:07:21;;;;;;;3.72;3.00;;;;;;;-139.48;100.00;61774.03;5018948;28;20092;-69
2021/06/28 09:10:05;;;;;;;5.07;3.38;;;;;;;-139.48;100.00;61774.03;5033579;28;20064;-69
2021/06/28 09:12:50;;;;;;;3.20;2.90;;;;;;;-139.48;100.00;61774.03;5018226;28;20406;-69
2021/06/28 09:15:49;;;;;;;3.90;2.97;;;;;;;-139.48;100.00;61774.03;5004569;28;20049;-67
2021/06/28 09:18:33;;;;;;;3.55;3.05;;;;;;;-139.48;100.00;61774.03;5033376;28;20417;-69
2021/06/28 09:21:22;;;;;;;;;;;;;;;-139.48;100.00;61774.03;5004759;28;20064;-67
2021/06/28 09:24:23;;;;;;;3.45;3.17;;;;;;;-139.48;100.00;61774.03;5018054;28;19920;-69
2021/06/28 09:27:10;;;;;;;3.55;3.10;;;;;;;-139.48;100.00;61774.03;5018380;28;20055;-69
2021/06/28 09:29:56;;;;;;;3.60;2.95;;;;;;;-139.48;100.00;61774.03;5018353;28;20151;-67
2021/06/28 09:32:55;;;;;;;4.78;3.22;;;;;;;-139.48;100.00;61774.03;5018643;28;20056;-69
2021/06/28 09:35:41;;;;;;;2.97;2.78;;;;;;;-139.48;100.00;61774.03;5018128;28;20045;-69
2021/06/28 09:38:32;;;;;;;4.82;3.28;;;;;;;-139.48;100.00;61774.03;5018584;28;20056;-69
2021/06/28 09:41:27;;;;;;;3.67;3.38;;;;;;;-139.48;100.00;61774.03;5004495;28;20048;-68
2021/06/28 09:44:10;;;;;;;3.90;3.53;;;;;;;-139.48;100.00;61774.03;5032677;28;20079;-69
2021/06/28 09:47:14;;;;;;;3.33;3.10;;;;;;;-139.48;100.00;61774.03;5032789;28;20064;-69
2021/06/28 09:50:20;;;;;;;4.00;3.22;;;;;;;-139.48;100.00;61774.03;5018066;28;20052;-68
2021/06/28 09:53:05;;;;;;;3.00;2.80;;;;;;;-139.48;100.00;61774.03;5017983;28;20081;-69
2021/06/28 09:55:49;;;;;;;3.55;2.70;;;;;;;-139.48;100.00;61774.03;5032783;28;20076;-69
2021/06/28 09:58:33;;;;;;;2.97;2.67;;;;;;;-139.48;100.00;61774.03;5017917;28;20601;-69
2021/06/28 10:01:22;;;;;;;2.63;2.42;;;;;;;-139.48;100.00;61774.03;5017705;28;20132;-69
2021/06/28 10:04:06;;;;;;;2.67;2.47;;;;;;;-139.48;100.00;61774.03;5004122;28;20124;-69
2021/06/28 10:06:56;;;;;;;4.57;2.58;;;;;;;-139.48;100.00;61774.03;5020501;28;20496;-70
2021/06/28 10:09:40;;;;;;;3.50;2.83;;;;;;;-139.48;100.00;61774.03;5036480;28;20044;-69
2021/06/28 10:12:24;;;;;;;5.00;2.67;;;;;;;-139.48;100.00;61774.03;5021457;28;20170;-69
2021/06/28 10:15:16;;;;;;;3.35;2.88;;;;;;;-139.48;100.00;61774.03;5036618;28;20052;-69
2021/06/28 10:18:01;;;;;;;4.05;3.63;;;;;;;-139.48;100.00;61774.03;5021535;28;20099;-69
2021/06/28 10:20:45;;;;;;;3.42;3.10;;;;;;;-139.48;100.00;61774.03;5021253;28;20068;-69
2021/06/28 10:23:30;;;;;;;3.50;3.20;;;;;;;-139.48;100.00;61774.03;5007518;28;20497;-69
2021/06/28 10:26:15;;;;;;;3.75;3.45;;;;;;;-139.48;100.00;61774.03;5021382;28;20060;-69
2021/06/28 10:28:58;;;;;;;5.32;3.38;;;;;;;-139.48;100.00;61774.03;5021409;28;20513;-69
2021/06/28 10:31:42;;;;;;;3.65;3.35;;;;;;;-139.48;100.00;61774.03;5007291;28;20096;-69
2021/06/28 10:34:26;;;;;;;4.90;3.10;;;;;;;-139.48;100.00;61774.03;5021022;28;20095;-69
2021/06/28 10:37:33;;;;;;;3.35;3.05;;;;;;;-139.48;100.00;61774.03;5021055;28;20052;-69
2021/06/28 10:40:23;;;;;;;3.88;3.10;;;;;;;-139.48;100.00;61774.03;5020967;28;20451;-69
2021/06/28 10:43:20;;;;;;;3.63;3.30;;;;;;;-139.48;100.00;61774.03;5006933;28;20064;-69
2021/06/28 10:46:09;;;;;;;5.63;3.53;;;;;;;-139.48;100.00;61774.03;5021136;28;20080;-69
2021/06/28 10:48:54;;;;;;;3.60;3.30;;;;;;;-139.48;100.00;61774.03;5006947;28;20418;-69
2021/06/28 10:51:50;;;;;;;4.28;3.33;;;;;;;-139.48;100.00;61774.03;5020876;28;20129;-69
2021/06/28 10:54:35;;;;;;;3.90;3.50;;;;;;;-139.48;100.00;61774.03;5020340;28;20523;-70
2021/06/28 10:57:19;;;;;;;3.78;3.38;;;;;;;-139.48;100.00;61774.03;5020912;28;20072;-69
2021/06/28 11:00:04;;;;;;;3.70;3.40;;;;;;;-139.48;100.00;61774.03;5021104;28;20087;-67
2021/06/28 11:02:48;;;;;;;3.17;2.90;;;;;;;-139.48;100.00;61774.03;5035542;28;20044;-67
2021/06/28 11:05:32;;;;;;;3.38;2.85;;;;;;;-139.48;100.00;61774.03;5006716;28;20084;-67
2021/06/28 11:08:20;;;;;;;3.45;3.08;;;;;;;-139.48;100.00;61774.03;5020407;28;20048;-67
2021/06/28 11:11:04;;;;;;;4.38;3.10;;;;;;;-139.48;100.00;61774.03;5020762;28;20467;-67
2021/06/28 11:13:52;;;;;;;3.58;3.30;;;;;;;-139.48;100.00;61774.03;5020340;28;20040;-67
2021/06/28 11:16:37;;;;;;;3.75;2.90;;;;;;;-139.48;100.00;61774.03;5020206;28;20043;-67
2021/06/28 11:22:41;;;;;;;8.13;3.05;;;;;;;-139.48;100.00;61774.03;5035399;28;20474;-67
2021/06/28 11:25:45;;;;;;;4.90;3.15;;;;;;;-139.48;100.00;61774.03;5006487;28;20055;-66
2021/06/28 11:28:32;;;;;;;3.15;2.90;;;;;;;-139.48;100.00;61774.03;5035040;28;20099;-67
2021/06/28 11:31:26;;;;;;;3.60;3.30;;;;;;;-139.48;100.00;61774.03;5034944;28;20136;-67
2021/06/28 11:34:11;;;;;;;6.35;3.28;;;;;;;-139.48;100.00;61774.03;5020374;28;20075;-67
2021/06/28 11:37:02;;;;;;;4.03;3.40;;;;;;;-139.48;100.00;61774.03;5019938;28;20120;-67
2021/06/28 11:39:58;;;;;;;8.98;3.50;;;;;;;-139.48;100.00;61774.03;5020137;28;20128;-67
2021/06/28 11:43:00;;;;;;;3.50;3.10;;;;;;;-139.48;100.00;61774.03;5019735;28;20044;-67
2021/06/28 11:45:54;;;;;;;3.40;3.13;;;;;;;-139.48;100.00;61774.03;5019945;28;20509;-67
2021/06/28 11:48:45;;;;;;;4.60;3.50;;;;;;;-139.48;100.00;61774.03;5019874;28;20047;-67
2021/06/28 11:51:45;;;;;;;3.53;3.22;;;;;;;-139.48;100.00;61774.03;5034548;28;20094;-67
2021/06/28 11:54:28;;;;;;;4.10;2.90;;;;;;;-139.48;100.00;61774.03;5019617;28;20076;-67
2021/06/28 11:57:13;;;;;;;4.28;3.25;;;;;;;-139.48;100.00;61774.03;5034602;28;20045;-66
2021/06/28 11:59:57;;;;;;;3.20;2.90;;;;;;;-139.48;100.00;61774.03;5019706;28;20048;-67
2021/06/28 12:02:41;;;;;;;3.08;2.78;;;;;;;-139.48;100.00;61774.03;5019684;28;20056;-67
2021/06/28 12:05:25;;;;;;;3.42;3.15;;;;;;;-139.48;100.00;61774.03;5019234;28;20442;-67
2021/06/28 12:08:10;;;;;;;3.10;2.90;;;;;;;-139.48;100.00;61774.03;5019758;28;20064;-67
2021/06/28 12:10:59;;;;;;;3.65;3.30;;;;;;;-139.48;100.00;61774.03;5019491;28;20064;-67
2021/06/28 12:13:44;;;;;;;3.47;3.25;;;;;;;-139.48;100.00;61774.03;5019026;28;20087;-67
2021/06/28 12:16:28;;;;;;;3.95;3.65;;;;;;;-139.48;100.00;61774.03;5018983;28;20123;-65
2021/06/28 12:19:12;;;;;;;3.42;3.13;;;;;;;-139.48;100.00;61774.03;5034055;28;20099;-67
2021/06/28 12:21:56;;;;;;;3.50;3.17;;;;;;;-139.48;100.00;61774.03;5033969;28;20048;-67
2021/06/28 12:24:42;;;;;;;3.40;2.92;;;;;;;-139.48;100.00;61774.03;5019075;28;20406;-67
2021/06/28 12:27:28;;;;;;;3.40;3.10;;;;;;;-139.48;100.00;61774.03;5005081;28;20048;-67
2021/06/28 12:30:14;;;;;;;5.65;3.20;;;;;;;-139.48;100.00;61774.03;5018820;28;20048;-67
2021/06/28 12:32:59;;;;;;;3.15;2.92;;;;;;;-139.48;100.00;61774.03;5033809;28;20505;-67
2021/06/28 12:35:43;;;;;;;3.50;3.10;;;;;;;-139.48;100.00;61774.03;5019015;28;20064;-67
2021/06/28 12:38:29;;;;;;;3.60;3.30;;;;;;;-139.48;100.00;61774.03;5034054;28;20517;-67
2021/06/28 12:41:13;;;;;;;3.28;3.08;;;;;;;-139.48;100.00;61774.03;5005193;28;20052;-65